Bullhead, SD (57621)

5:55 PM MDT on October 24, 2014 (GMT -0600)
Mobridge Municipal | Change Station
CLOSE
Current Station
Airport
Location: Mobridge,
Elevation: 1716 ft
Nearby Weather Stations

Elev 1716 ft 45.55 °N, 100.41 °W | Updated 1 hour ago

Partly Cloudy
Partly Cloudy
69 °F
Feels Like 69 °F
N
10
Wind Variable Wind from NW

Today
High -- | Low -- °F
--% Chance of Precip.
Yesterday
High -- | Low -- °F
Precip. -- in
7:13 AM 5:43 PM
New Moon, 1% visible
Pressure 29.94 in
Visibility 10.0 miles
Clouds Few 12000 ft
Dew Point 37 °F
Humidity 31%
Rainfall 0.00 in
Snow Depth Not available.
UV 0 out of 12
Pollen 1.70 out of 12
Air Quality Not available.
Flu Activity Not available.
METAR KMBG 242252Z AUTO 31009KT 10SM FEW120 21/03 A2994 RMK AO2 SLP138 T02060028

More Conditions Fewer Conditions

Pressure 29.94 in
Visibility 10.0 miles
Clouds Few 12000 ft
Dew Point 37 °F
Humidity 31%
Rainfall 0.00 in
Snow Depth Not available.
UV 0 out of 12
Pollen 1.70 out of 12
Air Quality Not available.
Flu Activity Not available.
METAR KMBG 242252Z AUTO 31009KT 10SM FEW120 21/03 A2994 RMK AO2 SLP138 T02060028

More Conditions Fewer Conditions

10-Day Weather Forecast

Almanac

Astronomy

Oct. 24, 2014 Rise Set
Actual Time 7:13 AM MDT 5:43 PM MDT
Civil Twilight 6:42 AM MDT 6:13 PM MDT
Nautical Twilight 6:07 AM MDT 6:48 PM MDT
Astronomical Twilight 5:33 AM MDT 7:22 PM MDT
Moon 7:55 AM MDT 6:21 PM MDT
Length of Visible Light 11h 30m
Length of Day
10h 29m
Tomorrow will be 3m 0s shorter.
New Moon, 1% of the Moon is Illuminated
Today
New Moon
Oct 30
First Quarter
Nov 6
Full
Nov 14
Last Quarter
Nov 22
New

Today's Extremes

State Highs State Lows

Community

WunderPhotos

Upload Photos

1,764,713 photos uploaded!

Nearby

Snow Depth

Station Depth Elevation
North Rapid Creek 0 in 6130 ft
Blind Park 0 in 6890 ft

Earthquake Activity

City Distance Mag. Time & Date
No recent earthquake activity has been reported nearby.
Minimum magnitude displayed is 2.5.

Coastal Water Temperatures

Place Temperature
No Stations Reporting

Nearby Weather Stations